createdAt,value
2023-05-01T00:02:04.979Z,6.30
2023-05-01T00:04:33.853Z,6.40
2023-05-01T00:07:03.654Z,6.40
2023-05-01T00:09:32.573Z,6.40
2023-05-01T00:11:59.600Z,6.30
2023-05-01T00:14:26.589Z,6.10
2023-05-01T00:16:57.450Z,6.30
2023-05-01T00:19:25.827Z,6.30
2023-05-01T00:21:53.582Z,6.30
2023-05-01T00:24:22.422Z,6.30
2023-05-01T00:26:49.586Z,6.30
2023-05-01T00:29:19.180Z,6.30
2023-05-01T00:31:46.687Z,6.20
2023-05-01T00:34:13.715Z,6.20
2023-05-01T00:36:40.731Z,6.20
2023-05-01T00:39:11.767Z,6.20
2023-05-01T00:41:44.397Z,6.10
2023-05-01T00:44:19.995Z,6.10
2023-05-01T00:46:48.030Z,6.10
2023-05-01T00:49:16.883Z,6.10
2023-05-01T00:51:50.510Z,6.00
2023-05-01T00:54:21.007Z,6.00
2023-05-01T00:56:58.838Z,5.90
2023-05-01T00:59:26.896Z,5.90
2023-05-01T01:01:56.302Z,5.90
2023-05-01T01:04:23.582Z,5.80
2023-05-01T01:07:04.010Z,5.80
2023-05-01T01:09:37.687Z,5.80
2023-05-01T01:12:24.738Z,5.70
2023-05-01T01:15:11.847Z,5.70
2023-05-01T01:17:45.029Z,5.60
2023-05-01T01:20:30.698Z,5.60
2023-05-01T01:23:04.378Z,5.60
2023-05-01T01:25:50.101Z,5.60
2023-05-01T01:28:25.320Z,5.60
2023-05-01T01:31:00.174Z,5.60
2023-05-01T01:33:46.300Z,5.50
2023-05-01T01:36:18.319Z,5.60
2023-05-01T01:38:51.642Z,5.50
2023-05-01T01:41:24.682Z,5.40
2023-05-01T01:43:55.748Z,5.30
2023-05-01T01:46:23.604Z,5.30
2023-05-01T01:48:58.504Z,5.20
2023-05-01T01:51:28.193Z,5.30
2023-05-01T01:53:57.294Z,5.20
2023-05-01T01:56:26.869Z,5.20
2023-05-01T01:58:54.286Z,5.20
2023-05-01T02:01:22.725Z,5.20
2023-05-01T02:03:50.979Z,5.20
2023-05-01T02:06:18.079Z,5.10
2023-05-01T02:08:50.076Z,5.10
2023-05-01T02:11:21.309Z,5.00
2023-05-01T02:13:49.648Z,5.00
2023-05-01T02:16:17.913Z,5.00
2023-05-01T02:18:46.758Z,5.00
2023-05-01T02:21:14.938Z,4.90
2023-05-01T02:23:45.533Z,5.00
2023-05-01T02:26:17.157Z,4.90
2023-05-01T02:28:45.274Z,4.90
2023-05-01T02:31:14.006Z,4.90
2023-05-01T02:33:42.709Z,4.90
2023-05-01T02:36:10.816Z,4.80
2023-05-01T02:38:40.965Z,4.90
2023-05-01T02:41:12.567Z,4.80
2023-05-01T02:43:40.728Z,4.80
2023-05-01T02:46:08.001Z,4.80
2023-05-01T02:48:38.672Z,4.80
2023-05-01T02:51:06.454Z,4.80
2023-05-01T02:53:33.782Z,4.70
2023-05-01T02:56:03.789Z,4.70
2023-05-01T02:58:32.774Z,4.70
2023-05-01T03:01:01.055Z,4.70
2023-05-01T03:03:29.283Z,4.70
2023-05-01T03:05:57.665Z,4.70
2023-05-01T03:08:26.710Z,4.60
2023-05-01T03:10:54.345Z,4.60
2023-05-01T03:13:23.290Z,4.60
2023-05-01T03:15:52.297Z,4.60
2023-05-01T03:18:19.259Z,4.70
2023-05-01T03:20:57.475Z,4.50
2023-05-01T03:23:24.323Z,4.60
2023-05-01T03:25:52.036Z,4.60
2023-05-01T03:28:19.223Z,4.50
2023-05-01T03:30:46.069Z,4.60
2023-05-01T03:33:15.206Z,4.50
2023-05-01T03:35:42.830Z,4.60
2023-05-01T03:38:10.824Z,4.60
2023-05-01T03:40:38.188Z,4.60
2023-05-01T03:43:05.100Z,4.60
2023-05-01T03:45:34.045Z,4.50
2023-05-01T03:48:02.361Z,4.50
2023-05-01T03:50:32.820Z,4.60
2023-05-01T03:52:59.658Z,4.60
2023-05-01T03:55:36.427Z,4.60
2023-05-01T03:58:04.648Z,4.70
2023-05-01T04:00:34.675Z,4.70
2023-05-01T04:03:01.814Z,4.70
2023-05-01T04:05:29.874Z,4.70
2023-05-01T04:07:57.396Z,4.80
2023-05-01T04:10:24.777Z,4.80
2023-05-01T04:12:51.942Z,4.80
2023-05-01T04:15:20.597Z,4.90
2023-05-01T04:17:48.493Z,4.90
2023-05-01T04:20:17.709Z,4.90
2023-05-01T04:22:45.199Z,4.90
2023-05-01T04:25:15.926Z,5.00
2023-05-01T04:27:43.336Z,5.10
2023-05-01T04:30:11.967Z,5.10
2023-05-01T04:32:41.790Z,5.20
2023-05-01T04:35:15.504Z,5.20
2023-05-01T04:37:50.062Z,5.20
2023-05-01T04:43:03.547Z,5.30
2023-05-01T04:45:31.574Z,5.30
2023-05-01T04:48:06.059Z,5.40
2023-05-01T04:50:59.182Z,5.40
2023-05-01T04:53:26.383Z,5.50
2023-05-01T04:55:54.774Z,5.60
2023-05-01T04:58:22.017Z,5.60
2023-05-01T05:00:52.206Z,5.70
2023-05-01T05:03:24.122Z,5.70
2023-05-01T05:05:52.670Z,5.80
2023-05-01T05:08:21.131Z,5.90
2023-05-01T05:10:48.490Z,5.90
2023-05-01T05:13:15.728Z,6.10
2023-05-01T05:15:44.183Z,6.10
2023-05-01T05:18:11.652Z,6.20
2023-05-01T05:20:49.424Z,6.30
2023-05-01T05:23:18.060Z,6.40
2023-05-01T05:25:46.673Z,6.50
2023-05-01T05:28:15.989Z,6.60
2023-05-01T05:30:44.122Z,6.70
2023-05-01T05:33:12.380Z,6.80
2023-05-01T05:35:44.061Z,6.80
2023-05-01T05:38:17.026Z,6.90
2023-05-01T05:43:27.878Z,7.10
2023-05-01T05:45:59.760Z,7.20
2023-05-01T05:48:30.666Z,7.30
2023-05-01T05:51:00.456Z,7.40
2023-05-01T05:53:27.348Z,7.50
2023-05-01T05:55:55.850Z,7.50
2023-05-01T05:58:31.445Z,7.60
2023-05-01T06:00:58.280Z,7.60
2023-05-01T06:03:25.274Z,7.70
2023-05-01T06:05:52.621Z,7.80
2023-05-01T06:08:20.458Z,7.90
2023-05-01T06:10:47.693Z,8.00
2023-05-01T06:13:17.024Z,8.10
2023-05-01T06:15:46.233Z,8.20
2023-05-01T06:18:13.380Z,8.30
2023-05-01T06:20:45.984Z,8.40
2023-05-01T06:23:15.159Z,8.50
2023-05-01T06:25:42.974Z,8.60
2023-05-01T06:28:13.076Z,8.70
2023-05-01T06:30:40.165Z,8.80
2023-05-01T06:33:13.008Z,9.00
2023-05-01T06:35:41.487Z,9.20
2023-05-01T06:38:08.768Z,9.20
2023-05-01T06:40:36.212Z,9.30
2023-05-01T06:43:03.714Z,9.40
2023-05-01T06:45:37.431Z,9.60
2023-05-01T06:48:04.819Z,9.70
2023-05-01T06:50:31.924Z,9.60
2023-05-01T06:53:03.056Z,9.50
2023-05-01T06:55:33.722Z,9.70
2023-05-01T06:58:22.489Z,9.80
2023-05-01T07:00:54.460Z,9.70
2023-05-01T07:03:22.315Z,9.80
2023-05-01T07:08:40.003Z,10.10
2023-05-01T07:11:08.584Z,10.20
2023-05-01T07:13:36.567Z,10.30
2023-05-01T07:16:05.522Z,10.30
2023-05-01T07:18:36.422Z,10.50
2023-05-01T07:21:03.347Z,10.40
2023-05-01T07:23:30.386Z,10.60
2023-05-01T07:26:05.893Z,10.50
2023-05-01T07:28:32.934Z,10.60
2023-05-01T07:31:01.798Z,10.70
2023-05-01T07:33:34.020Z,10.70
2023-05-01T07:36:04.128Z,10.70
2023-05-01T07:38:31.098Z,10.80
2023-05-01T07:40:57.903Z,10.90
2023-05-01T07:43:24.896Z,10.90
2023-05-01T07:46:01.097Z,10.90
2023-05-01T07:48:29.655Z,11.00
2023-05-01T07:50:58.120Z,11.00
2023-05-01T07:53:25.024Z,11.00
2023-05-01T07:55:51.944Z,11.20
2023-05-01T07:58:19.326Z,11.40
2023-05-01T08:03:35.001Z,11.40
2023-05-01T08:06:05.104Z,11.40
2023-05-01T08:08:32.022Z,11.40
2023-05-01T08:10:58.875Z,11.40
2023-05-01T08:13:28.247Z,11.50
2023-05-01T08:16:00.697Z,11.60
2023-05-01T08:18:27.572Z,11.50
2023-05-01T08:20:54.752Z,11.60
2023-05-01T08:23:21.648Z,11.70
2023-05-01T08:25:51.485Z,11.70
2023-05-01T08:28:20.805Z,11.80
2023-05-01T08:30:49.475Z,11.90
2023-05-01T08:33:16.787Z,11.90
2023-05-01T08:35:45.519Z,12.00
2023-05-01T08:38:13.061Z,12.00
2023-05-01T08:40:41.111Z,11.90
2023-05-01T08:43:08.369Z,12.00
2023-05-01T08:45:39.928Z,12.10
2023-05-01T08:48:10.733Z,12.00
2023-05-01T08:50:47.674Z,12.10
2023-05-01T08:53:15.947Z,12.10
2023-05-01T08:55:47.765Z,12.10
2023-05-01T08:58:16.162Z,11.90
2023-05-01T09:00:47.186Z,11.70
2023-05-01T09:03:14.370Z,11.80
2023-05-01T09:05:43.510Z,12.10
2023-05-01T09:08:17.879Z,12.10
2023-05-01T09:10:47.004Z,12.30
2023-05-01T09:13:14.813Z,12.50
2023-05-01T09:15:42.155Z,12.60
2023-05-01T09:18:10.560Z,12.70
2023-05-01T09:20:39.621Z,12.70
2023-05-01T09:23:09.511Z,12.50
2023-05-01T09:25:36.408Z,12.80
2023-05-01T09:28:05.479Z,12.90
2023-05-01T09:30:41.930Z,13.00
2023-05-01T09:33:09.617Z,13.10
2023-05-01T09:35:54.262Z,13.00
2023-05-01T09:38:27.775Z,13.10
2023-05-01T09:40:58.294Z,13.30
2023-05-01T09:43:35.981Z,13.30
2023-05-01T09:46:06.555Z,13.50
2023-05-01T09:48:37.963Z,13.60
2023-05-01T09:51:27.927Z,13.70
2023-05-01T09:53:57.955Z,13.90
2023-05-01T09:56:39.231Z,14.20
2023-05-01T09:59:17.489Z,14.10
2023-05-01T10:01:46.536Z,14.30
2023-05-01T10:04:13.908Z,13.80
2023-05-01T10:06:43.279Z,13.70
2023-05-01T10:09:17.600Z,13.80
2023-05-01T10:11:50.817Z,14.00
2023-05-01T10:14:18.184Z,14.00
2023-05-01T10:16:47.111Z,14.10
2023-05-01T10:19:17.880Z,13.90
2023-05-01T10:21:44.724Z,13.60
2023-05-01T10:24:11.753Z,13.50
2023-05-01T10:26:40.778Z,13.70
2023-05-01T10:29:08.731Z,13.80
2023-05-01T10:34:29.919Z,13.70
2023-05-01T10:37:09.068Z,13.60
2023-05-01T10:39:36.718Z,13.60
2023-05-01T10:42:10.973Z,13.60
2023-05-01T10:44:39.328Z,13.70
2023-05-01T10:47:26.702Z,13.80
2023-05-01T10:50:12.827Z,13.80
2023-05-01T10:53:05.868Z,13.60
2023-05-01T10:55:37.220Z,13.80
2023-05-01T10:58:04.441Z,14.00
2023-05-01T11:00:32.547Z,14.00
2023-05-01T11:03:19.624Z,13.80
2023-05-01T11:06:05.778Z,13.70
2023-05-01T11:08:34.034Z,13.70
2023-05-01T11:11:19.800Z,13.70
2023-05-01T11:14:00.286Z,13.60
2023-05-01T11:16:42.586Z,13.70
2023-05-01T11:19:36.789Z,13.90
2023-05-01T11:22:12.097Z,13.90
2023-05-01T11:24:39.534Z,13.80
2023-05-01T11:27:10.547Z,13.80
2023-05-01T11:29:42.654Z,13.80
2023-05-01T11:32:20.959Z,13.80
2023-05-01T11:34:56.124Z,13.70
2023-05-01T11:37:42.027Z,13.70
2023-05-01T11:40:22.684Z,13.60
2023-05-01T11:42:49.714Z,13.60
2023-05-01T11:45:16.858Z,13.60
2023-05-01T11:47:44.127Z,13.60
2023-05-01T11:50:11.900Z,13.60
2023-05-01T11:52:44.660Z,13.60
2023-05-01T11:55:14.085Z,13.50
2023-05-01T11:57:53.720Z,13.50
2023-05-01T12:00:27.341Z,13.50
2023-05-01T12:02:58.931Z,13.30
2023-05-01T12:05:27.755Z,13.30
2023-05-01T12:08:13.667Z,13.30
2023-05-01T12:10:44.741Z,13.40
2023-05-01T12:13:13.599Z,13.30
2023-05-01T12:15:43.746Z,13.30
2023-05-01T12:18:13.151Z,13.20
2023-05-01T12:20:44.140Z,13.20
2023-05-01T12:23:15.724Z,13.10
2023-05-01T12:25:44.314Z,12.80
2023-05-01T12:28:17.434Z,12.70
2023-05-01T12:30:49.504Z,12.60
2023-05-01T12:33:30.631Z,12.60
2023-05-01T12:36:08.743Z,12.50
2023-05-01T12:38:37.110Z,12.50
2023-05-01T12:41:10.522Z,12.50
2023-05-01T12:43:41.107Z,12.60
2023-05-01T12:46:15.179Z,12.60
2023-05-01T12:48:43.091Z,12.70
2023-05-01T12:51:10.089Z,12.70
2023-05-01T12:53:43.868Z,12.90
2023-05-01T12:56:21.111Z,13.10
2023-05-01T12:58:48.965Z,13.10
2023-05-01T13:01:25.922Z,13.00
2023-05-01T13:03:58.911Z,13.10
2023-05-01T13:06:37.661Z,13.00
2023-05-01T13:09:09.688Z,12.90
2023-05-01T13:11:39.115Z,12.70
2023-05-01T13:14:09.573Z,12.60
2023-05-01T13:16:47.609Z,12.50
2023-05-01T13:19:40.906Z,12.50
2023-05-01T13:22:10.847Z,12.50
2023-05-01T13:24:41.821Z,12.60
2023-05-01T13:27:11.700Z,12.60
2023-05-01T13:29:39.479Z,12.70
2023-05-01T13:32:14.699Z,12.70
2023-05-01T13:34:42.139Z,12.70
2023-05-01T13:37:11.609Z,12.80
2023-05-01T13:39:41.569Z,12.80
2023-05-01T13:42:09.667Z,12.70
2023-05-01T13:44:45.648Z,12.70
2023-05-01T13:47:18.204Z,12.80
2023-05-01T13:49:49.241Z,12.90
2023-05-01T13:52:20.005Z,13.00
2023-05-01T13:54:57.969Z,13.00
2023-05-01T13:57:25.864Z,13.00
2023-05-01T13:59:52.745Z,13.10
2023-05-01T14:02:29.637Z,13.00
2023-05-01T14:04:58.490Z,12.90
2023-05-01T14:07:27.603Z,12.80
2023-05-01T14:09:55.287Z,12.80
2023-05-01T14:12:25.322Z,12.70
2023-05-01T14:14:56.243Z,12.50
2023-05-01T14:17:30.412Z,12.50
2023-05-01T14:19:57.433Z,12.50
2023-05-01T14:22:26.225Z,12.50
2023-05-01T14:24:53.214Z,12.60
2023-05-01T14:27:21.091Z,12.60
2023-05-01T14:29:49.909Z,12.70
2023-05-01T14:32:22.689Z,12.80
2023-05-01T14:34:52.111Z,12.80
2023-05-01T14:37:19.796Z,12.80
2023-05-01T14:39:49.143Z,12.80
2023-05-01T14:42:15.985Z,12.70
2023-05-01T14:44:42.975Z,12.70
2023-05-01T14:47:09.799Z,12.70
2023-05-01T14:49:38.612Z,12.70
2023-05-01T14:52:07.777Z,12.80
2023-05-01T14:54:44.799Z,12.70
2023-05-01T14:57:13.119Z,12.70
2023-05-01T14:59:42.210Z,12.70
2023-05-01T15:02:10.275Z,12.60
2023-05-01T15:04:37.917Z,12.50
2023-05-01T15:07:05.185Z,12.50
2023-05-01T15:09:32.308Z,12.50
2023-05-01T15:11:59.109Z,12.50
2023-05-01T15:14:27.927Z,12.60
2023-05-01T15:16:54.908Z,12.50
2023-05-01T15:19:23.846Z,12.60
2023-05-01T15:21:51.141Z,12.50
2023-05-01T15:24:19.877Z,12.40
2023-05-01T15:26:48.236Z,12.30
2023-05-01T15:29:15.292Z,12.30
2023-05-01T15:34:25.288Z,12.20
2023-05-01T15:36:54.245Z,12.20
2023-05-01T15:39:21.637Z,12.10
2023-05-01T15:41:48.896Z,12.20
2023-05-01T15:44:16.736Z,12.30
2023-05-01T15:46:44.797Z,12.20
2023-05-01T15:49:12.369Z,12.20
2023-05-01T15:51:39.210Z,12.00
2023-05-01T15:54:06.636Z,12.00
2023-05-01T15:56:37.423Z,12.10
2023-05-01T15:59:07.199Z,12.00
2023-05-01T16:01:35.024Z,12.10
2023-05-01T16:04:05.743Z,12.20
2023-05-01T16:06:34.390Z,12.20
2023-05-01T16:09:01.788Z,12.10
2023-05-01T16:11:30.770Z,12.00
2023-05-01T16:13:59.653Z,12.00
2023-05-01T16:16:27.286Z,12.10
2023-05-01T16:18:59.474Z,12.10
2023-05-01T16:21:33.892Z,12.00
2023-05-01T16:24:13.105Z,12.00
2023-05-01T16:26:42.545Z,12.10
2023-05-01T16:29:23.517Z,12.20
2023-05-01T16:31:52.092Z,12.20
2023-05-01T16:34:27.373Z,12.10
2023-05-01T16:36:56.288Z,12.10
2023-05-01T16:39:29.310Z,12.10
2023-05-01T16:41:59.035Z,12.10
2023-05-01T16:44:25.804Z,12.00
2023-05-01T16:46:54.452Z,12.00
2023-05-01T16:49:28.237Z,12.00
2023-05-01T16:52:04.021Z,11.90
2023-05-01T16:57:19.344Z,11.80
2023-05-01T16:59:46.100Z,11.70
2023-05-01T17:02:13.293Z,11.70
2023-05-01T17:04:41.120Z,11.70
2023-05-01T17:07:09.036Z,11.70
2023-05-01T17:09:36.432Z,11.60
2023-05-01T17:12:09.829Z,11.60
2023-05-01T17:14:39.370Z,11.60
2023-05-01T17:17:09.586Z,11.60
2023-05-01T17:19:39.015Z,11.50
2023-05-01T17:22:07.562Z,11.50
2023-05-01T17:24:35.349Z,11.60
2023-05-01T17:27:03.989Z,11.50
2023-05-01T17:29:30.971Z,11.50
2023-05-01T17:31:57.804Z,11.50
2023-05-01T17:34:24.597Z,11.50
2023-05-01T17:36:52.465Z,11.50
2023-05-01T17:39:22.193Z,11.50
2023-05-01T17:41:52.998Z,11.50
2023-05-01T17:44:22.022Z,11.50
2023-05-01T17:46:50.842Z,11.40
2023-05-01T17:49:20.174Z,11.30
2023-05-01T17:51:47.635Z,11.30
2023-05-01T17:54:18.122Z,11.30
2023-05-01T17:56:45.986Z,11.30
2023-05-01T17:59:13.918Z,11.20
2023-05-01T18:01:41.227Z,11.20
2023-05-01T18:04:11.864Z,11.20
2023-05-01T18:06:38.832Z,11.20
2023-05-01T18:09:06.412Z,11.10
2023-05-01T18:11:33.292Z,11.10
2023-05-01T18:14:00.093Z,11.10
2023-05-01T18:16:26.835Z,11.10
2023-05-01T18:18:57.336Z,11.10
2023-05-01T18:21:26.054Z,11.10
2023-05-01T18:24:00.766Z,11.10
2023-05-01T18:26:29.451Z,11.10
2023-05-01T18:28:57.827Z,11.10
2023-05-01T18:31:29.280Z,11.10
2023-05-01T18:33:57.438Z,11.00
2023-05-01T18:36:27.781Z,11.00
2023-05-01T18:38:55.300Z,11.00
2023-05-01T18:41:23.742Z,11.00
2023-05-01T18:43:54.264Z,11.10
2023-05-01T18:46:23.997Z,11.00
2023-05-01T18:48:53.776Z,11.00
2023-05-01T18:51:23.258Z,11.00
2023-05-01T18:53:53.721Z,11.00
2023-05-01T18:56:30.273Z,10.90
2023-05-01T18:58:58.847Z,10.90
2023-05-01T19:01:30.990Z,10.80
2023-05-01T19:04:08.435Z,10.80
2023-05-01T19:06:58.846Z,10.80
2023-05-01T19:09:28.119Z,10.70
2023-05-01T19:11:55.931Z,10.70
2023-05-01T19:14:25.043Z,10.70
2023-05-01T19:16:51.948Z,10.60
2023-05-01T19:19:19.509Z,10.50
2023-05-01T19:21:47.557Z,10.50
2023-05-01T19:24:14.522Z,10.50
2023-05-01T19:26:47.128Z,10.50
2023-05-01T19:29:18.282Z,10.50
2023-05-01T19:31:45.053Z,10.40
2023-05-01T19:34:11.865Z,10.40
2023-05-01T19:36:38.665Z,10.40
2023-05-01T19:39:05.601Z,10.40
2023-05-01T19:41:32.688Z,10.30
2023-05-01T19:44:02.060Z,10.30
2023-05-01T19:46:28.929Z,10.20
2023-05-01T19:48:55.803Z,10.30
2023-05-01T19:51:22.605Z,10.30
2023-05-01T19:53:49.424Z,10.20
2023-05-01T19:56:16.904Z,10.20
2023-05-01T19:58:43.783Z,10.10
2023-05-01T20:01:13.617Z,10.10
2023-05-01T20:03:41.167Z,10.10
2023-05-01T20:06:08.129Z,10.00
2023-05-01T20:08:34.929Z,10.10
2023-05-01T20:11:02.040Z,10.00
2023-05-01T20:13:28.852Z,10.00
2023-05-01T20:15:55.682Z,9.90
2023-05-01T20:18:24.150Z,9.90
2023-05-01T20:20:53.879Z,9.90
2023-05-01T20:23:24.587Z,9.90
2023-05-01T20:25:56.325Z,9.90
2023-05-01T20:28:31.246Z,9.90
2023-05-01T20:30:58.280Z,9.90
2023-05-01T20:33:26.577Z,9.90
2023-05-01T20:35:54.597Z,9.80
2023-05-01T20:38:22.020Z,9.90
2023-05-01T20:40:49.435Z,9.80
2023-05-01T20:43:17.892Z,9.80
2023-05-01T20:45:45.810Z,9.80
2023-05-01T20:50:53.820Z,9.70
2023-05-01T20:53:20.627Z,9.70
2023-05-01T20:55:47.867Z,9.70
2023-05-01T20:58:14.713Z,9.70
2023-05-01T21:00:44.589Z,9.60
2023-05-01T21:03:11.966Z,9.60
2023-05-01T21:05:38.935Z,9.50
2023-05-01T21:08:06.523Z,9.50
2023-05-01T21:10:35.115Z,9.50
2023-05-01T21:13:04.240Z,9.50
2023-05-01T21:15:33.916Z,9.60
2023-05-01T21:18:07.851Z,9.40
2023-05-01T21:20:36.765Z,9.50
2023-05-01T21:23:04.603Z,9.40
2023-05-01T21:25:39.698Z,9.40
2023-05-01T21:28:07.291Z,9.40
2023-05-01T21:30:35.067Z,9.30
2023-05-01T21:33:05.511Z,9.40
2023-05-01T21:35:32.615Z,9.30
2023-05-01T21:37:59.743Z,9.30
2023-05-01T21:40:27.211Z,9.30
2023-05-01T21:42:54.968Z,9.30
2023-05-01T21:45:22.034Z,9.20
2023-05-01T21:47:51.016Z,9.20
2023-05-01T21:50:19.216Z,9.20
2023-05-01T21:52:47.177Z,9.20
2023-05-01T21:55:25.147Z,9.10
2023-05-01T21:57:56.220Z,9.00
2023-05-01T22:00:24.848Z,9.00
2023-05-01T22:02:52.133Z,9.00
2023-05-01T22:05:23.005Z,9.00
2023-05-01T22:08:11.087Z,8.90
2023-05-01T22:10:38.063Z,8.90
2023-05-01T22:13:07.106Z,8.90
2023-05-01T22:15:36.460Z,8.80
2023-05-01T22:18:03.737Z,8.80
2023-05-01T22:20:32.090Z,8.80
2023-05-01T22:22:58.881Z,8.80
2023-05-01T22:25:26.715Z,8.80
2023-05-01T22:27:54.660Z,8.80
2023-05-01T22:30:22.453Z,8.80
2023-05-01T22:32:49.803Z,8.70
2023-05-01T22:35:18.518Z,8.70
2023-05-01T22:37:46.847Z,8.80
2023-05-01T22:40:13.669Z,8.70
2023-05-01T22:42:41.557Z,8.70
2023-05-01T22:45:11.576Z,8.70
2023-05-01T22:47:38.634Z,8.70
2023-05-01T22:50:07.637Z,8.70
2023-05-01T22:52:36.534Z,8.70
2023-05-01T22:55:03.338Z,8.70
2023-05-01T22:57:33.047Z,8.70
2023-05-01T23:00:00.350Z,8.60
2023-05-01T23:02:27.774Z,8.60
2023-05-01T23:04:54.643Z,8.60
2023-05-01T23:07:22.569Z,8.60
2023-05-01T23:09:49.273Z,8.50
2023-05-01T23:12:19.592Z,8.50
2023-05-01T23:14:47.143Z,8.60
2023-05-01T23:17:14.980Z,8.60
2023-05-01T23:19:43.832Z,8.60
2023-05-01T23:22:15.254Z,8.60
2023-05-01T23:24:49.237Z,8.50
2023-05-01T23:27:16.905Z,8.50
2023-05-01T23:29:54.354Z,8.50
2023-05-01T23:32:26.518Z,8.50
2023-05-01T23:34:58.190Z,8.50
2023-05-01T23:37:25.436Z,8.50
2023-05-01T23:39:55.575Z,8.50
2023-05-01T23:42:22.762Z,8.50
2023-05-01T23:44:49.722Z,8.50
2023-05-01T23:47:19.712Z,8.50
2023-05-01T23:49:46.993Z,8.50
2023-05-01T23:52:13.777Z,8.50
2023-05-01T23:54:41.017Z,8.60
2023-05-01T23:57:10.864Z,8.60
2023-05-01T23:59:38.618Z,8.60
